Time;durP1;ratioP1;P1;durP2;ratioP2;P2;SDS_P1;SDS_P2;PMS_P1;PMS_P2;Temp;Humidity;BMP_temperature;BMP_pressure;BME280_temperature;BME280_humidity;BME280_pressure;Samples;Min_cycle;Max_cycle;Signal;HPM_P1;HPM_P2
2022/08/09 00:00:44;;;;;;;5.70;2.40;;;;;;;13.86;100.00;102133.09;4917241;29;20809;-83
2022/08/09 00:03:12;;;;;;;7.35;2.50;;;;;;;13.86;100.00;102126.81;4916554;29;20445;-84
2022/08/09 00:05:41;;;;;;;3.95;2.30;;;;;;;13.89;100.00;102129.00;4919659;29;20431;-84
2022/08/09 00:08:14;;;;;;;4.47;2.45;;;;;;;13.88;100.00;102128.19;4913653;29;20442;-83
2022/08/09 00:10:48;;;;;;;4.93;2.67;;;;;;;13.87;100.00;102126.53;4919111;29;20434;-83
2022/08/09 00:13:21;;;;;;;4.47;2.67;;;;;;;13.77;100.00;102130.06;4911478;29;20428;-83
2022/08/09 00:15:49;;;;;;;5.73;2.60;;;;;;;13.75;100.00;102131.41;4918080;29;20509;-83
2022/08/09 00:18:18;;;;;;;4.85;2.53;;;;;;;13.76;100.00;102135.78;4932599;29;20424;-84
2022/08/09 00:20:51;;;;;;;7.00;2.90;;;;;;;13.74;100.00;102136.06;4911243;29;20458;-83
2022/08/09 00:23:19;;;;;;;4.95;2.45;;;;;;;13.75;100.00;102137.72;4910162;29;20433;-84
2022/08/09 00:25:54;;;;;;;6.93;2.30;;;;;;;13.70;100.00;102128.63;4916707;29;20905;-83
2022/08/09 00:28:27;;;;;;;4.35;2.22;;;;;;;13.74;100.00;102135.22;4916450;29;20412;-84
2022/08/09 00:31:01;;;;;;;5.63;2.30;;;;;;;13.71;100.00;102139.34;4925387;29;20437;-84
2022/08/09 00:33:35;;;;;;;8.07;2.53;;;;;;;13.70;100.00;102139.56;4916916;29;20434;-83
2022/08/09 00:36:04;;;;;;;4.78;2.40;;;;;;;13.65;100.00;102134.09;4917124;29;20435;-83
2022/08/09 00:38:38;;;;;;;5.25;2.15;;;;;;;13.61;100.00;102137.34;4926539;29;20430;-83
2022/08/09 00:41:07;;;;;;;4.22;2.10;;;;;;;13.68;100.00;102141.78;4913560;29;20429;-83
2022/08/09 00:43:41;;;;;;;4.68;2.30;;;;;;;13.72;100.00;102140.16;4910085;29;20423;-83
2022/08/09 00:46:15;;;;;;;5.10;2.40;;;;;;;13.68;100.00;102139.84;4920119;29;20439;-84
2022/08/09 00:48:48;;;;;;;5.78;2.70;;;;;;;13.61;100.00;102128.31;4933715;29;20430;-83
2022/08/09 00:51:21;;;;;;;5.70;2.42;;;;;;;13.71;100.00;102142.06;4914064;29;20432;-83
2022/08/09 00:53:50;;;;;;;4.90;2.53;;;;;;;13.59;100.00;102134.06;4903264;29;20430;-84
2022/08/09 00:56:20;;;;;;;4.90;2.50;;;;;;;13.52;100.00;102151.78;4931137;29;20442;-83
2022/08/09 00:58:53;;;;;;;3.47;2.40;;;;;;;13.50;100.00;102143.03;4923621;29;20430;-84
2022/08/09 01:01:32;;;;;;;5.18;2.40;;;;;;;13.53;100.00;102137.84;4905888;29;20782;-83
2022/08/09 01:04:06;;;;;;;5.50;2.40;;;;;;;13.49;100.00;102135.91;4921223;29;20772;-84
2022/08/09 01:06:42;;;;;;;5.03;2.42;;;;;;;13.54;100.00;102133.22;4924058;29;20425;-84
2022/08/09 01:09:25;;;;;;;5.97;2.30;;;;;;;13.55;100.00;102137.59;4929079;29;20524;-83
2022/08/09 01:12:07;;;;;;;4.50;2.20;;;;;;;13.58;100.00;102137.06;4920070;29;20434;-83
2022/08/09 01:14:52;;;;;;;4.88;2.35;;;;;;;13.57;100.00;102138.97;4910930;29;20419;-83
2022/08/09 01:17:30;;;;;;;6.18;2.40;;;;;;;13.55;100.00;102134.88;4919904;29;20431;-84
2022/08/09 01:20:02;;;;;;;3.35;2.20;;;;;;;13.51;100.00;102134.56;4919254;29;20419;-84
2022/08/09 01:23:16;;;;;;;5.45;2.53;;;;;;;13.58;100.00;102137.88;4931526;29;20468;-84
2022/08/09 01:26:00;;;;;;;8.07;2.70;;;;;;;13.59;100.00;102136.00;4858632;29;20861;-84
2022/08/09 01:28:31;;;;;;;4.88;2.40;;;;;;;13.52;100.00;102135.38;4859258;29;20800;-83
2022/08/09 01:31:03;;;;;;;4.85;2.38;;;;;;;13.46;100.00;102134.53;4905622;29;20431;-84
2022/08/09 01:33:40;;;;;;;4.72;2.30;;;;;;;13.49;100.00;102141.38;4918335;29;20433;-84
2022/08/09 01:36:17;;;;;;;7.20;2.30;;;;;;;13.46;100.00;102139.97;4917072;29;20435;-83
2022/08/09 01:38:47;;;;;;;6.13;2.60;;;;;;;13.46;100.00;102139.19;4936369;29;21089;-84
2022/08/09 01:41:24;;;;;;;6.57;2.50;;;;;;;13.35;100.00;102143.72;4907207;29;20429;-84
2022/08/09 01:44:02;;;;;;;5.72;2.33;;;;;;;13.30;100.00;102136.31;4923226;29;20433;-84
2022/08/09 01:46:33;;;;;;;5.30;2.40;;;;;;;13.35;100.00;102140.97;4932156;29;20918;-84
2022/08/09 01:49:06;;;;;;;7.60;2.42;;;;;;;13.37;100.00;102142.41;4906801;29;20439;-84
2022/08/09 01:51:42;;;;;;;4.97;2.30;;;;;;;13.28;100.00;102141.19;4932241;29;20437;-84
2022/08/09 01:54:17;;;;;;;5.40;2.30;;;;;;;13.22;100.00;102134.06;4916979;29;20419;-84
2022/08/09 01:56:48;;;;;;;5.13;2.50;;;;;;;13.24;100.00;102145.53;4936541;29;20408;-84
2022/08/09 01:59:19;;;;;;;5.43;2.50;;;;;;;13.22;100.00;102147.72;4918777;29;20427;-84
2022/08/09 02:01:54;;;;;;;4.20;2.35;;;;;;;13.15;100.00;102137.00;4919190;29;20447;-84
2022/08/09 02:04:24;;;;;;;6.63;2.33;;;;;;;13.19;100.00;102137.31;4934732;29;20435;-84
2022/08/09 02:07:08;;;;;;;4.82;2.50;;;;;;;13.15;100.00;102126.09;4921400;29;20912;-84
2022/08/09 02:09:46;;;;;;;6.28;2.60;;;;;;;13.20;100.00;102141.69;4918773;29;20430;-84
2022/08/09 02:12:21;;;;;;;3.87;2.27;;;;;;;13.20;100.00;102142.53;4918556;29;20512;-84
2022/08/09 02:14:59;;;;;;;5.35;2.30;;;;;;;13.15;100.00;102142.47;4934314;29;20426;-84
2022/08/09 02:17:31;;;;;;;4.30;2.40;;;;;;;13.08;100.00;102141.88;4918489;29;20427;-84
2022/08/09 02:19:59;;;;;;;5.05;2.50;;;;;;;13.06;100.00;102141.31;4918022;29;20419;-84
2022/08/09 02:22:37;;;;;;;4.97;2.50;;;;;;;13.05;100.00;102145.13;4933968;29;20438;-84
2022/08/09 02:25:15;;;;;;;3.78;2.38;;;;;;;13.07;100.00;102151.16;4924895;29;21235;-84
2022/08/09 02:27:51;;;;;;;5.95;2.50;;;;;;;13.00;100.00;102140.44;4915020;29;20442;-85
2022/08/09 02:30:21;;;;;;;5.15;2.70;;;;;;;13.00;100.00;102145.09;4918583;29;20430;-84
2022/08/09 02:32:57;;;;;;;6.43;2.75;;;;;;;12.93;100.00;102148.03;4913076;29;20443;-84
2022/08/09 02:35:27;;;;;;;6.05;2.63;;;;;;;12.89;100.00;102144.19;4930387;29;20415;-84
2022/08/09 02:38:02;;;;;;;5.03;2.47;;;;;;;12.91;100.00;102142.84;4915887;29;20912;-83
2022/08/09 02:40:37;;;;;;;5.78;2.88;;;;;;;12.89;100.00;102131.31;4907438;29;20432;-84
2022/08/09 02:43:12;;;;;;;4.20;2.58;;;;;;;12.88;100.00;102146.06;4928426;29;20805;-84
2022/08/09 02:45:44;;;;;;;5.72;2.80;;;;;;;12.86;100.00;102150.16;4936074;29;20879;-83
2022/08/09 02:48:19;;;;;;;4.18;2.60;;;;;;;12.88;100.00;102150.72;4914637;29;20422;-84
2022/08/09 02:50:56;;;;;;;4.90;2.70;;;;;;;12.87;100.00;102149.06;4912683;29;20431;-84
2022/08/09 02:53:27;;;;;;;5.15;2.65;;;;;;;12.85;100.00;102140.31;4932383;29;20789;-84
2022/08/09 02:56:03;;;;;;;5.82;2.83;;;;;;;12.68;100.00;102118.59;4929700;29;20436;-84
2022/08/09 02:58:33;;;;;;;5.38;2.53;;;;;;;12.80;100.00;102143.84;4933611;29;20412;-84
2022/08/09 03:01:05;;;;;;;5.85;2.80;;;;;;;12.80;100.00;102151.19;4927249;29;20431;-84
2022/08/09 03:03:35;;;;;;;5.88;2.88;;;;;;;12.79;100.00;102147.63;4918478;29;20943;-84
2022/08/09 03:06:05;;;;;;;4.85;2.72;;;;;;;12.78;100.00;102140.53;4918340;29;20778;-84
2022/08/09 03:08:35;;;;;;;5.80;2.80;;;;;;;12.74;100.00;102144.84;4909986;29;20424;-84
2022/08/09 03:11:09;;;;;;;5.65;2.60;;;;;;;12.73;100.00;102140.47;4918848;29;20832;-84
2022/08/09 03:13:45;;;;;;;4.70;2.67;;;;;;;12.68;100.00;102138.53;4936451;29;20429;-84
2022/08/09 03:16:23;;;;;;;6.25;2.92;;;;;;;12.65;100.00;102138.19;4917540;29;20779;-83
2022/08/09 03:18:56;;;;;;;6.88;2.63;;;;;;;12.65;100.00;102141.78;4909985;29;20424;-84
2022/08/09 03:21:32;;;;;;;6.33;2.70;;;;;;;12.72;100.00;102150.56;4934889;29;20792;-84
2022/08/09 03:24:05;;;;;;;5.30;2.80;;;;;;;12.69;100.00;102148.38;4921619;29;20453;-84
2022/08/09 03:26:39;;;;;;;4.60;2.60;;;;;;;12.72;100.00;102155.22;4925664;29;20441;-84
2022/08/09 03:29:13;;;;;;;5.18;2.60;;;;;;;12.66;100.00;102139.84;4930252;29;20892;-84
2022/08/09 03:31:49;;;;;;;3.88;2.30;;;;;;;12.75;100.00;102152.78;4933463;29;20439;-84
2022/08/09 03:34:22;;;;;;;5.78;2.83;;;;;;;12.78;100.00;102153.38;4931046;29;20792;-85
2022/08/09 03:36:56;;;;;;;5.88;2.70;;;;;;;12.75;100.00;102152.78;4904532;29;20428;-84
2022/08/09 03:39:30;;;;;;;4.55;2.70;;;;;;;12.68;100.00;102163.09;4907346;29;20433;-85
2022/08/09 03:41:58;;;;;;;6.25;2.95;;;;;;;12.66;100.00;102156.25;4906336;29;20435;-84
2022/08/09 03:44:28;;;;;;;4.22;2.40;;;;;;;12.60;100.00;102158.09;4927436;29;20437;-84
2022/08/09 03:46:58;;;;;;;5.22;2.97;;;;;;;12.62;100.00;102161.38;4934541;29;20880;-85
2022/08/09 03:49:28;;;;;;;6.68;2.90;;;;;;;12.59;100.00;102160.03;4914228;29;20441;-84
2022/08/09 03:52:02;;;;;;;4.55;2.60;;;;;;;12.60;100.00;102155.38;4935108;29;20436;-84
2022/08/09 03:54:35;;;;;;;5.47;2.85;;;;;;;12.66;100.00;102150.78;4914380;29;20429;-85
2022/08/09 03:57:11;;;;;;;4.97;2.60;;;;;;;12.63;100.00;102145.84;4933371;29;20430;-85
2022/08/09 03:59:44;;;;;;;5.82;2.83;;;;;;;12.61;100.00;102139.78;4912119;29;20432;-84
2022/08/09 04:02:21;;;;;;;5.93;2.70;;;;;;;12.66;100.00;102151.59;4932257;29;20442;-84
2022/08/09 04:04:49;;;;;;;6.10;2.70;;;;;;;12.65;100.00;102149.97;4907951;29;20440;-85
2022/08/09 04:07:18;;;;;;;5.25;2.83;;;;;;;12.68;100.00;102154.09;4930878;29;20431;-85
2022/08/09 04:09:46;;;;;;;6.05;2.70;;;;;;;12.68;100.00;102154.91;4934302;29;20734;-85
2022/08/09 04:12:35;;;;;;;6.95;2.97;;;;;;;12.74;100.00;102151.13;4933824;29;20411;-85
2022/08/09 04:15:10;;;;;;;5.35;2.90;;;;;;;12.80;100.00;102159.38;4930596;29;20448;-85
2022/08/09 04:17:45;;;;;;;4.60;2.60;;;;;;;12.79;100.00;102155.84;4910464;29;20431;-84
2022/08/09 04:20:14;;;;;;;5.85;2.67;;;;;;;12.84;100.00;102160.50;4936656;29;20412;-85
2022/08/09 04:22:47;;;;;;;5.88;2.55;;;;;;;12.85;100.00;102159.44;4912181;29;20436;-85
2022/08/09 04:25:15;;;;;;;4.90;2.65;;;;;;;12.87;100.00;102162.72;4914742;29;20440;-85
2022/08/09 04:27:43;;;;;;;6.57;2.72;;;;;;;12.90;100.00;102154.84;4919890;29;20430;-85
2022/08/09 04:30:13;;;;;;;5.68;2.70;;;;;;;12.86;100.00;102147.44;4909250;29;20445;-84
2022/08/09 04:32:42;;;;;;;6.53;2.95;;;;;;;12.92;100.00;102166.31;4910006;29;20461;-85
2022/08/09 04:35:13;;;;;;;5.40;2.70;;;;;;;13.02;100.00;102156.56;4934463;29;20423;-84
2022/08/09 04:37:41;;;;;;;8.38;2.80;;;;;;;13.05;100.00;102159.63;4936008;29;20426;-85
2022/08/09 04:40:14;;;;;;;6.93;2.80;;;;;;;13.00;100.00;102156.03;4915792;29;20428;-85
2022/08/09 04:42:47;;;;;;;6.28;3.08;;;;;;;13.03;100.00;102156.31;4928739;29;20782;-84
2022/08/09 04:45:21;;;;;;;6.78;3.13;;;;;;;13.09;100.00;102163.47;4916721;29;20430;-85
2022/08/09 04:47:49;;;;;;;7.80;3.00;;;;;;;13.18;100.00;102165.75;4920121;29;20920;-85
2022/08/09 04:50:19;;;;;;;6.60;2.97;;;;;;;13.14;100.00;102156.41;4920341;29;20423;-84
2022/08/09 04:52:52;;;;;;;6.78;2.90;;;;;;;13.21;100.00;102168.75;4919906;29;20431;-84
2022/08/09 04:55:20;;;;;;;6.90;3.03;;;;;;;13.22;100.00;102161.41;4937514;29;20509;-84
2022/08/09 04:57:48;;;;;;;7.10;3.05;;;;;;;13.26;100.00;102168.81;4919228;29;20438;-85
2022/08/09 05:00:22;;;;;;;4.87;2.77;;;;;;;13.13;100.00;102139.16;4936344;29;20440;-84
2022/08/09 05:02:55;;;;;;;7.03;2.90;;;;;;;13.33;100.00;102178.72;4918755;29;20928;-84
2022/08/09 05:05:25;;;;;;;6.32;2.95;;;;;;;13.19;100.00;102159.19;4929181;28;20440;-84
2022/08/09 05:07:58;;;;;;;5.15;2.85;;;;;;;13.65;100.00;102177.88;4918489;29;20431;-85
2022/08/09 05:10:26;;;;;;;5.43;3.15;;;;;;;15.00;100.00;102177.25;4934434;29;20447;-85
2022/08/09 05:12:55;;;;;;;4.05;2.33;;;;;;;16.45;100.00;102170.38;4937179;29;20407;-84
2022/08/09 05:15:28;;;;;;;3.67;2.13;;;;;;;18.14;100.00;102172.75;4919732;29;20442;-84
2022/08/09 05:18:01;;;;;;;4.65;2.00;;;;;;;18.68;100.00;102176.16;4924465;29;20985;-85
2022/08/09 05:20:36;;;;;;;5.10;2.20;;;;;;;19.06;100.00;102161.53;4911975;29;20931;-85
2022/08/09 05:23:09;;;;;;;3.60;2.00;;;;;;;19.38;100.00;102168.97;4920070;29;20423;-85
2022/08/09 05:25:42;;;;;;;4.35;2.30;;;;;;;18.69;100.00;102164.81;4916342;29;20439;-84
2022/08/09 05:28:15;;;;;;;4.43;2.00;;;;;;;19.79;100.00;102175.66;4917997;29;20439;-85
2022/08/09 05:30:48;;;;;;;4.40;1.80;;;;;;;20.33;100.00;102174.03;4916847;29;20443;-85
2022/08/09 05:33:17;;;;;;;3.53;1.90;;;;;;;19.86;100.00;102173.38;4927365;29;20412;-86
2022/08/09 05:35:51;;;;;;;5.13;1.80;;;;;;;18.62;100.00;102177.38;4910902;29;20437;-84
2022/08/09 05:38:20;;;;;;;2.85;1.70;;;;;;;17.35;100.00;102182.13;4931907;29;20435;-85
2022/08/09 05:40:48;;;;;;;4.28;2.10;;;;;;;16.69;100.00;102194.41;4929189;29;20442;-85
2022/08/09 05:43:16;;;;;;;4.30;2.40;;;;;;;16.71;100.00;102195.78;4925210;29;20424;-84
2022/08/09 05:45:49;;;;;;;4.80;2.20;;;;;;;16.23;100.00;102176.25;4923273;29;20820;-85
2022/08/09 05:48:17;;;;;;;3.47;2.00;;;;;;;16.44;100.00;102208.00;4932752;29;20434;-84
2022/08/09 05:50:52;;;;;;;6.07;2.10;;;;;;;16.47;100.00;102201.13;4917061;29;20797;-84
2022/08/09 05:53:28;;;;;;;6.35;2.20;;;;;;;16.31;100.00;102206.69;4933512;29;20443;-85
2022/08/09 05:55:56;;;;;;;4.25;2.03;;;;;;;16.39;100.00;102219.03;4930190;29;20442;-84
2022/08/09 05:58:24;;;;;;;4.03;2.20;;;;;;;16.25;100.00;102207.81;4924676;29;20431;-85
2022/08/09 06:00:59;;;;;;;4.85;2.42;;;;;;;16.17;100.00;102208.38;4916320;29;20423;-84
2022/08/09 06:03:27;;;;;;;5.20;2.20;;;;;;;15.96;100.00;102213.97;4935296;29;20423;-83
2022/08/09 06:06:01;;;;;;;5.15;2.20;;;;;;;16.01;100.00;102210.38;4934596;29;20434;-84
2022/08/09 06:08:29;;;;;;;4.35;2.15;;;;;;;16.08;100.00;102213.66;4918897;29;20427;-84
2022/08/09 06:11:03;;;;;;;4.50;2.30;;;;;;;16.17;100.00;102215.81;4936282;29;20430;-83
2022/08/09 06:13:36;;;;;;;5.97;2.58;;;;;;;16.02;100.00;102216.69;4930218;29;20431;-83
2022/08/09 06:16:05;;;;;;;4.90;2.50;;;;;;;16.18;100.00;102215.53;4920444;29;20511;-84
2022/08/09 06:18:34;;;;;;;5.10;2.45;;;;;;;15.87;100.00;102212.91;4934628;29;20463;-83
2022/08/09 06:21:08;;;;;;;5.03;2.40;;;;;;;16.14;100.00;102226.28;4918225;29;20421;-84
2022/08/09 06:23:36;;;;;;;6.68;2.63;;;;;;;15.98;100.00;102228.22;4925726;29;20500;-85
2022/08/09 06:26:10;;;;;;;7.85;2.58;;;;;;;15.99;100.00;102234.53;4917836;29;20459;-84
2022/08/09 06:28:43;;;;;;;6.10;2.50;;;;;;;16.07;100.00;102231.22;4923962;29;20769;-83
2022/08/09 06:31:16;;;;;;;4.18;2.47;;;;;;;16.35;100.00;102245.44;4933957;29;20431;-84
2022/08/09 06:33:44;;;;;;;4.28;2.28;;;;;;;16.35;100.00;102231.69;4913798;29;20435;-84
2022/08/09 06:36:19;;;;;;;5.97;2.40;;;;;;;16.52;100.00;102238.75;4934392;29;20415;-84
2022/08/09 06:38:47;;;;;;;5.35;2.50;;;;;;;16.59;100.00;102237.34;4937548;29;20426;-82
2022/08/09 06:41:21;;;;;;;4.50;2.40;;;;;;;16.46;100.00;102236.03;4924612;29;20427;-86
2022/08/09 06:43:54;;;;;;;4.90;2.30;;;;;;;16.52;100.00;102233.25;4938842;29;20431;-84
2022/08/09 06:46:27;;;;;;;6.28;2.30;;;;;;;16.59;100.00;102242.84;4933688;29;20442;-83
2022/08/09 06:49:00;;;;;;;4.10;2.22;;;;;;;16.65;100.00;102243.63;4928973;29;20897;-86
2022/08/09 06:51:37;;;;;;;3.83;2.25;;;;;;;16.97;100.00;102248.72;4924365;29;20441;-86
2022/08/09 06:54:11;;;;;;;4.28;2.33;;;;;;;17.14;100.00;102234.56;4931328;29;20443;-85
2022/08/09 06:56:44;;;;;;;6.15;2.20;;;;;;;17.40;100.00;102233.53;4927581;29;20430;-87
2022/08/09 06:59:12;;;;;;;7.47;2.10;;;;;;;17.51;100.00;102243.31;4914050;29;20437;-85
2022/08/09 07:01:45;;;;;;;4.87;2.03;;;;;;;17.55;100.00;102240.84;4917006;29;20954;-81
2022/08/09 07:04:19;;;;;;;5.07;2.28;;;;;;;17.79;100.00;102240.91;4927020;29;21032;-85
2022/08/09 07:06:53;;;;;;;5.43;1.92;;;;;;;17.90;100.00;102234.16;4919388;29;20446;-85
2022/08/09 07:09:21;;;;;;;3.90;1.90;;;;;;;18.10;100.00;102244.16;4926147;29;20450;-87
2022/08/09 07:11:50;;;;;;;4.97;2.30;;;;;;;18.24;100.00;102238.75;4901252;29;20431;-85
2022/08/09 07:14:23;;;;;;;6.88;2.35;;;;;;;18.33;100.00;102238.94;4902579;29;20431;-86
2022/08/09 07:16:56;;;;;;;4.72;2.20;;;;;;;18.41;100.00;102235.53;4896755;29;20446;-86
2022/08/09 07:19:29;;;;;;;6.95;2.38;;;;;;;18.07;100.00;102247.50;4908317;29;20450;-85
2022/08/09 07:22:04;;;;;;;6.35;2.33;;;;;;;18.16;100.00;102254.00;4915889;29;20443;-86
2022/08/09 07:24:37;;;;;;;4.53;1.73;;;;;;;18.26;100.00;102252.25;4917531;29;20439;-86
2022/08/09 07:27:06;;;;;;;5.57;2.45;;;;;;;18.44;100.00;102240.44;4904787;29;20447;-86
2022/08/09 07:29:40;;;;;;;5.53;2.20;;;;;;;18.38;100.00;102252.66;4898158;29;20446;-87
2022/08/09 07:32:13;;;;;;;5.95;2.20;;;;;;;18.51;100.00;102251.13;4897881;29;20455;-88
2022/08/09 07:34:41;;;;;;;4.38;1.80;;;;;;;18.70;100.00;102246.44;4897908;29;20439;-86
2022/08/09 07:37:16;;;;;;;3.87;1.87;;;;;;;18.74;100.00;102262.38;4914103;29;20439;-88
2022/08/09 07:39:44;;;;;;;4.15;1.98;;;;;;;18.82;100.00;102254.28;4898832;29;20436;-87
2022/08/09 07:42:12;;;;;;;4.55;1.80;;;;;;;18.77;100.00;102251.59;4901357;29;21673;-87
2022/08/09 07:44:42;;;;;;;3.80;1.60;;;;;;;19.09;100.00;102252.00;4915260;29;20408;-88
2022/08/09 07:47:10;;;;;;;3.10;1.48;;;;;;;18.89;100.00;102256.69;4900844;29;20450;-85
2022/08/09 07:49:43;;;;;;;6.55;1.40;;;;;;;18.86;100.00;102254.50;4898554;29;20963;-87
2022/08/09 07:52:18;;;;;;;6.10;1.70;;;;;;;18.85;100.00;102248.16;4898961;29;20474;-86
2022/08/09 07:54:51;;;;;;;3.67;1.50;;;;;;;19.06;100.00;102258.94;4917056;29;20444;-86
2022/08/09 07:57:24;;;;;;;2.80;1.27;;;;;;;19.31;100.00;102252.19;4918362;29;20446;-85
2022/08/09 07:59:52;;;;;;;3.28;1.48;;;;;;;19.33;100.00;102227.88;4899963;29;20458;-85
2022/08/09 08:02:25;;;;;;;2.85;1.38;;;;;;;19.58;100.00;102256.13;4911309;29;20564;-85
2022/08/09 08:04:54;;;;;;;1.77;1.20;;;;;;;19.71;100.00;102257.31;4916637;29;20419;-87
2022/08/09 08:07:28;;;;;;;3.10;1.45;;;;;;;19.45;100.00;102262.47;4889458;29;20443;-87
2022/08/09 08:10:01;;;;;;;3.58;1.50;;;;;;;19.66;100.00;102263.72;4889566;29;20837;-86
2022/08/09 08:12:35;;;;;;;3.95;1.50;;;;;;;19.98;100.00;102262.09;4890585;29;21005;-87
2022/08/09 08:15:10;;;;;;;4.38;1.60;;;;;;;19.74;100.00;102255.88;4907408;29;20440;-85
2022/08/09 08:17:45;;;;;;;5.25;1.65;;;;;;;19.42;100.00;102263.88;4906576;29;20444;-86
2022/08/09 08:20:19;;;;;;;4.50;1.60;;;;;;;19.59;100.00;102259.75;4911240;29;20979;-87
2022/08/09 08:22:53;;;;;;;4.95;1.50;;;;;;;19.66;100.00;102249.91;4911986;29;20901;-84
2022/08/09 08:25:27;;;;;;;6.32;1.63;;;;;;;19.65;100.00;102264.88;4890836;29;20448;-86
2022/08/09 08:28:01;;;;;;;3.63;1.20;;;;;;;19.67;100.00;102264.56;4884844;29;21008;-83
2022/08/09 08:30:34;;;;;;;3.83;1.52;;;;;;;19.80;100.00;102249.16;4901105;29;20443;-86
2022/08/09 08:33:07;;;;;;;4.55;1.40;;;;;;;19.86;100.00;102259.81;4917838;29;20443;-89
2022/08/09 08:35:40;;;;;;;3.55;1.65;;;;;;;19.63;100.00;102261.56;4895789;29;20451;-86
2022/08/09 08:38:15;;;;;;;2.47;1.30;;;;;;;19.34;100.00;102262.63;4891003;29;20420;-87
2022/08/09 08:40:49;;;;;;;3.33;1.40;;;;;;;19.65;100.00;102264.03;4910683;29;20454;-88
2022/08/09 08:43:23;;;;;;;5.32;1.40;;;;;;;19.86;100.00;102262.59;4895046;29;20798;-87
2022/08/09 08:45:55;;;;;;;5.00;1.65;;;;;;;19.82;100.00;102267.06;4891564;29;20458;-85
2022/08/09 08:48:29;;;;;;;3.60;1.55;;;;;;;20.18;100.00;102260.88;4894916;29;20990;-88
2022/08/09 08:50:58;;;;;;;3.38;1.30;;;;;;;20.20;100.00;102260.56;4887865;29;20701;-87
2022/08/09 08:53:32;;;;;;;3.73;1.43;;;;;;;20.37;100.00;102259.94;4892949;29;20430;-84
2022/08/09 08:56:01;;;;;;;2.75;1.10;;;;;;;20.35;100.00;102259.44;4928797;28;20433;-87
2022/08/09 08:58:32;;;;;;;3.22;1.23;;;;;;;20.28;100.00;102254.31;4909992;29;20437;-87
2022/08/09 09:01:02;;;;;;;2.40;1.20;;;;;;;20.65;100.00;102257.97;4909983;29;21220;-87
2022/08/09 09:03:36;;;;;;;3.28;1.42;;;;;;;20.82;100.00;102260.09;4902084;28;20449;-86
2022/08/09 09:06:06;;;;;;;3.42;1.30;;;;;;;20.92;100.00;102255.47;4901433;29;20450;-86
2022/08/09 09:08:45;;;;;;;4.60;1.52;;;;;;;20.88;100.00;102264.41;4901689;29;20445;-85
2022/08/09 09:11:18;;;;;;;3.85;1.30;;;;;;;20.96;100.00;102256.47;4903586;29;20437;-86
2022/08/09 09:13:55;;;;;;;3.40;1.10;;;;;;;20.22;100.00;102264.66;4917654;29;21029;-86
2022/08/09 09:16:30;;;;;;;2.30;1.20;;;;;;;20.50;100.00;102263.81;4911009;29;20471;-87
2022/08/09 09:19:06;;;;;;;3.67;1.20;;;;;;;20.84;100.00;102262.53;4927125;28;20472;-86
2022/08/09 09:22:01;;;;;;;3.05;1.17;;;;;;;20.96;100.00;102256.47;4907948;29;20882;-87
2022/08/09 09:24:38;;;;;;;2.03;1.17;;;;;;;21.26;100.00;102262.41;4921739;29;20441;-86
2022/08/09 09:27:13;;;;;;;2.40;1.30;;;;;;;21.18;100.00;102256.47;4911577;29;20456;-85
2022/08/09 09:29:47;;;;;;;3.00;1.27;;;;;;;21.43;100.00;102262.53;4909673;29;20438;-87
2022/08/09 09:32:19;;;;;;;2.90;1.30;;;;;;;21.31;100.00;102263.13;4909084;29;20480;-85
2022/08/09 09:35:06;;;;;;;5.18;1.70;;;;;;;21.00;100.00;102269.38;4929178;28;20437;-87
2022/08/09 09:37:40;;;;;;;2.50;1.27;;;;;;;20.78;100.00;102266.56;4928381;28;20957;-86
2022/08/09 09:40:15;;;;;;;3.53;1.20;;;;;;;20.92;100.00;102269.31;4926338;29;21742;-88
2022/08/09 09:42:55;;;;;;;4.75;1.48;;;;;;;21.36;100.00;102268.53;4909415;29;20449;-87
2022/08/09 09:45:28;;;;;;;4.35;1.42;;;;;;;21.48;100.00;102267.13;4904915;29;20451;-85
2022/08/09 09:48:03;;;;;;;1.98;1.20;;;;;;;21.02;100.00;102264.34;4920415;28;21131;-87
2022/08/09 09:50:42;;;;;;;2.08;1.08;;;;;;;20.94;100.00;102267.84;4907971;28;20441;-87
2022/08/09 09:53:13;;;;;;;3.20;1.33;;;;;;;;;;4910382;28;20443;-88
2022/08/09 09:55:58;;;;;;;3.08;1.13;;;;;;;20.94;100.00;102265.09;4930065;28;21517;-88
2022/08/09 09:58:44;;;;;;;3.67;1.30;;;;;;;21.12;100.00;102270.78;4907625;29;20441;-88
2022/08/09 10:01:19;;;;;;;2.80;1.30;;;;;;;21.61;100.00;102269.03;4924045;29;20532;-88
2022/08/09 10:03:54;;;;;;;4.40;1.20;;;;;;;22.12;100.00;102257.69;4932421;29;20800;-86
2022/08/09 10:06:28;;;;;;;2.63;1.20;;;;;;;21.86;100.00;102266.72;4895138;28;20882;-87
2022/08/09 10:09:04;;;;;;;2.47;1.10;;;;;;;21.67;100.00;102264.19;4928103;29;20442;-87
2022/08/09 10:11:33;;;;;;;2.75;1.08;;;;;;;21.71;100.00;102263.22;4904344;29;20806;-86
2022/08/09 10:14:20;;;;;;;13.00;8.75;;;;;;;21.66;100.00;102263.34;4939967;29;20456;-88
2022/08/09 10:16:49;;;;;;;2.65;1.30;;;;;;;21.65;100.00;102270.03;4919013;29;20850;-88
2022/08/09 10:19:34;;;;;;;3.35;1.13;;;;;;;21.26;100.00;102257.69;4922204;29;20434;-88
2022/08/09 10:22:03;;;;;;;3.60;1.27;;;;;;;21.34;100.00;102256.13;4924837;29;20450;-86
2022/08/09 10:24:38;;;;;;;2.33;1.00;;;;;;;21.86;100.00;102256.47;4938650;28;20426;-88
2022/08/09 10:27:08;;;;;;;2.47;1.10;;;;;;;22.48;100.00;102260.28;4933624;29;20445;-86
2022/08/09 10:29:41;;;;;;;2.97;0.93;;;;;;;22.45;100.00;102235.16;4930583;28;20444;-86
2022/08/09 10:32:15;;;;;;;3.20;1.40;;;;;;;22.56;93.46;102244.78;4930758;29;20437;-86
2022/08/09 10:34:48;;;;;;;3.30;1.20;;;;;;;22.74;98.02;102249.25;4918654;29;20438;-86
2022/08/09 10:37:22;;;;;;;1.80;1.00;;;;;;;22.81;91.85;102239.59;4935852;28;20452;-85
2022/08/09 10:39:56;;;;;;;1.77;0.90;;;;;;;23.17;90.83;102242.06;4923134;29;20434;-87
2022/08/09 10:42:30;;;;;;;2.58;1.10;;;;;;;23.07;91.73;102239.59;4920858;29;20446;-87
2022/08/09 10:45:01;;;;;;;2.78;0.90;;;;;;;23.29;91.12;102241.41;4918605;29;20421;-86
2022/08/09 10:47:46;;;;;;;1.90;0.90;;;;;;;22.98;85.66;102231.28;4932116;28;20434;-86
2022/08/09 10:50:22;;;;;;;1.98;1.00;;;;;;;22.41;88.99;102241.34;4919959;29;20765;-89
2022/08/09 10:53:07;;;;;;;1.30;0.90;;;;;;;22.10;91.10;102241.41;4930616;28;20430;-86
2022/08/09 10:55:41;;;;;;;3.00;1.20;;;;;;;22.16;91.03;102237.31;4929706;29;20918;-86
2022/08/09 11:01:39;;;;;;;2.03;0.90;;;;;;;22.63;92.72;102238.78;5055626;27;1887860;-85
2022/08/09 11:04:17;;;;;;;3.83;1.00;;;;;;;22.65;87.59;102219.81;5093248;28;20455;-86
2022/08/09 11:07:27;;;;;;;3.22;1.20;;;;;;;23.11;91.08;102229.47;5063050;28;20429;-87
2022/08/09 11:09:56;;;;;;;3.45;1.10;;;;;;;23.13;84.46;102226.38;5084720;28;20781;-84
2022/08/09 11:12:29;;;;;;;2.95;1.10;;;;;;;22.97;85.44;102226.88;5085036;28;20416;-85
2022/08/09 11:15:01;;;;;;;2.50;1.00;;;;;;;22.96;93.22;102235.53;5106715;27;20430;-86
2022/08/09 11:17:46;;;;;;;2.28;1.10;;;;;;;23.23;87.89;102229.66;5088065;28;20423;-86
2022/08/09 11:20:38;;;;;;;2.83;0.95;;;;;;;23.36;74.00;102232.56;5072631;28;20425;-86
2022/08/09 11:23:12;;;;;;;1.70;0.90;;;;;;;23.43;79.20;102222.56;5056987;28;20916;-87
2022/08/09 11:25:47;;;;;;;2.70;0.98;;;;;;;23.62;81.96;102240.84;5063108;28;20447;-87
2022/08/09 11:28:38;;;;;;;3.63;1.20;;;;;;;23.84;73.25;102214.75;5071446;28;20434;-87
2022/08/09 11:31:39;;;;;;;2.17;0.90;;;;;;;24.05;77.25;102216.81;5066082;28;20431;-86
2022/08/09 11:34:15;;;;;;;2.55;0.90;;;;;;;23.60;74.25;102215.34;5066752;28;20431;-87
2022/08/09 11:36:51;;;;;;;2.30;0.90;;;;;;;23.67;74.70;102215.66;5071370;28;20822;-87
2022/08/09 11:39:24;;;;;;;2.33;0.90;;;;;;;23.94;74.77;102202.47;5065655;28;20433;-85
2022/08/09 11:41:53;;;;;;;3.47;0.82;;;;;;;24.08;85.31;102213.38;5080732;28;20460;-86
2022/08/09 11:44:43;;;;;;;2.33;1.10;;;;;;;23.62;75.28;102213.03;5086820;28;20421;-85
2022/08/09 11:47:11;;;;;;;1.70;0.90;;;;;;;23.25;80.29;102209.88;5072849;28;21927;-86
2022/08/09 11:49:59;;;;;;;2.83;1.00;;;;;;;22.96;85.79;102210.53;5089479;28;20410;-86
2022/08/09 11:52:34;;;;;;;2.08;1.00;;;;;;;22.56;87.47;102209.53;5099807;28;20413;-83